sensor_id;sensor_type;location;lat;lon;timestamp;P1;durP1;ratioP1;P2;durP2;ratioP2
48534;SDS011;34323;52.022;5.686;2022-09-27T00:00:25;5.95;;;0.80;;
48534;SDS011;34323;52.022;5.686;2022-09-27T00:02:51;2.88;;;0.52;;
48534;SDS011;34323;52.022;5.686;2022-09-27T00:05:17;3.25;;;1.15;;
48534;SDS011;34323;52.022;5.686;2022-09-27T00:07:43;2.72;;;0.82;;
48534;SDS011;34323;52.022;5.686;2022-09-27T00:10:09;1.35;;;0.65;;
48534;SDS011;34323;52.022;5.686;2022-09-27T00:12:35;9.07;;;1.25;;
48534;SDS011;34323;52.022;5.686;2022-09-27T00:15:01;1.17;;;0.50;;
48534;SDS011;34323;52.022;5.686;2022-09-27T00:17:28;3.45;;;0.70;;
48534;SDS011;34323;52.022;5.686;2022-09-27T00:19:54;4.20;;;1.05;;
48534;SDS011;34323;52.022;5.686;2022-09-27T00:22:20;7.00;;;0.73;;
48534;SDS011;34323;52.022;5.686;2022-09-27T00:24:48;1.33;;;0.50;;
48534;SDS011;34323;52.022;5.686;2022-09-27T00:27:13;2.22;;;0.93;;
48534;SDS011;34323;52.022;5.686;2022-09-27T00:29:39;1.08;;;0.50;;
48534;SDS011;34323;52.022;5.686;2022-09-27T00:32:04;0.70;;;0.50;;
48534;SDS011;34323;52.022;5.686;2022-09-27T00:34:30;3.30;;;0.63;;
48534;SDS011;34323;52.022;5.686;2022-09-27T00:36:55;1.02;;;0.50;;
48534;SDS011;34323;52.022;5.686;2022-09-27T00:39:21;5.10;;;0.70;;
48534;SDS011;34323;52.022;5.686;2022-09-27T00:41:46;3.83;;;0.70;;
48534;SDS011;34323;52.022;5.686;2022-09-27T00:46:52;2.92;;;0.60;;
48534;SDS011;34323;52.022;5.686;2022-09-27T00:49:29;1.85;;;0.65;;
48534;SDS011;34323;52.022;5.686;2022-09-27T00:52:02;2.35;;;0.70;;
48534;SDS011;34323;52.022;5.686;2022-09-27T00:54:31;3.72;;;0.60;;
48534;SDS011;34323;52.022;5.686;2022-09-27T00:57:00;4.72;;;1.20;;
48534;SDS011;34323;52.022;5.686;2022-09-27T01:01:58;2.38;;;0.50;;
48534;SDS011;34323;52.022;5.686;2022-09-27T01:04:25;1.08;;;0.50;;
48534;SDS011;34323;52.022;5.686;2022-09-27T01:06:53;6.45;;;0.77;;
48534;SDS011;34323;52.022;5.686;2022-09-27T01:09:19;3.58;;;0.70;;
48534;SDS011;34323;52.022;5.686;2022-09-27T01:14:43;2.58;;;0.20;;
48534;SDS011;34323;52.022;5.686;2022-09-27T01:17:37;11.57;;;0.68;;
48534;SDS011;34323;52.022;5.686;2022-09-27T01:30:47;3.17;;;0.50;;
48534;SDS011;34323;52.022;5.686;2022-09-27T01:33:24;0.15;;;0.15;;
48534;SDS011;34323;52.022;5.686;2022-09-27T01:39:08;0.75;;;0.28;;
48534;SDS011;34323;52.022;5.686;2022-09-27T01:41:46;1.77;;;0.40;;
48534;SDS011;34323;52.022;5.686;2022-09-27T01:44:34;3.35;;;0.55;;
48534;SDS011;34323;52.022;5.686;2022-09-27T01:47:20;7.43;;;1.02;;
48534;SDS011;34323;52.022;5.686;2022-09-27T01:49:55;0.50;;;0.40;;
48534;SDS011;34323;52.022;5.686;2022-09-27T01:52:28;0.80;;;0.40;;
48534;SDS011;34323;52.022;5.686;2022-09-27T01:55:03;4.90;;;1.00;;
48534;SDS011;34323;52.022;5.686;2022-09-27T01:57:36;1.85;;;0.40;;
48534;SDS011;34323;52.022;5.686;2022-09-27T02:00:05;1.60;;;0.40;;
48534;SDS011;34323;52.022;5.686;2022-09-27T02:02:35;4.45;;;0.77;;
48534;SDS011;34323;52.022;5.686;2022-09-27T02:05:06;0.63;;;0.30;;
48534;SDS011;34323;52.022;5.686;2022-09-27T02:07:36;5.78;;;0.80;;
48534;SDS011;34323;52.022;5.686;2022-09-27T02:10:11;3.00;;;0.55;;
48534;SDS011;34323;52.022;5.686;2022-09-27T02:12:46;0.85;;;0.40;;
48534;SDS011;34323;52.022;5.686;2022-09-27T02:15:16;1.95;;;0.22;;
48534;SDS011;34323;52.022;5.686;2022-09-27T02:20:30;16.52;;;0.57;;
48534;SDS011;34323;52.022;5.686;2022-09-27T02:25:53;3.53;;;0.90;;
48534;SDS011;34323;52.022;5.686;2022-09-27T02:28:27;1.55;;;0.85;;
48534;SDS011;34323;52.022;5.686;2022-09-27T02:30:58;0.52;;;0.40;;
48534;SDS011;34323;52.022;5.686;2022-09-27T02:33:25;1.02;;;0.90;;
48534;SDS011;34323;52.022;5.686;2022-09-27T02:35:55;6.28;;;0.70;;
48534;SDS011;34323;52.022;5.686;2022-09-27T02:38:21;0.52;;;0.52;;
48534;SDS011;34323;52.022;5.686;2022-09-27T02:40:47;2.15;;;0.50;;
48534;SDS011;34323;52.022;5.686;2022-09-27T02:43:13;1.15;;;0.80;;
48534;SDS011;34323;52.022;5.686;2022-09-27T02:49:15;2.50;;;1.00;;
48534;SDS011;34323;52.022;5.686;2022-09-27T02:55:17;1.45;;;0.68;;
48534;SDS011;34323;52.022;5.686;2022-09-27T02:57:56;5.07;;;2.17;;
48534;SDS011;34323;52.022;5.686;2022-09-27T03:00:31;0.60;;;0.55;;
48534;SDS011;34323;52.022;5.686;2022-09-27T03:03:22;2.05;;;0.70;;
48534;SDS011;34323;52.022;5.686;2022-09-27T03:06:03;6.75;;;1.30;;
48534;SDS011;34323;52.022;5.686;2022-09-27T03:08:33;2.88;;;1.17;;
48534;SDS011;34323;52.022;5.686;2022-09-27T03:10:59;1.92;;;0.95;;
48534;SDS011;34323;52.022;5.686;2022-09-27T03:13:24;2.38;;;1.02;;
48534;SDS011;34323;52.022;5.686;2022-09-27T03:15:51;0.90;;;0.65;;
48534;SDS011;34323;52.022;5.686;2022-09-27T03:18:16;4.30;;;1.15;;
48534;SDS011;34323;52.022;5.686;2022-09-27T03:20:42;4.22;;;1.55;;
48534;SDS011;34323;52.022;5.686;2022-09-27T03:23:08;3.80;;;1.60;;
48534;SDS011;34323;52.022;5.686;2022-09-27T03:25:34;2.67;;;1.05;;
48534;SDS011;34323;52.022;5.686;2022-09-27T03:27:59;1.80;;;1.00;;
48534;SDS011;34323;52.022;5.686;2022-09-27T03:30:25;6.22;;;0.63;;
48534;SDS011;34323;52.022;5.686;2022-09-27T03:32:51;1.20;;;0.60;;
48534;SDS011;34323;52.022;5.686;2022-09-27T03:35:16;3.60;;;0.80;;
48534;SDS011;34323;52.022;5.686;2022-09-27T03:37:42;3.60;;;0.80;;
48534;SDS011;34323;52.022;5.686;2022-09-27T03:40:07;1.42;;;0.65;;
48534;SDS011;34323;52.022;5.686;2022-09-27T03:42:34;3.65;;;0.90;;
48534;SDS011;34323;52.022;5.686;2022-09-27T03:44:59;3.55;;;0.68;;
48534;SDS011;34323;52.022;5.686;2022-09-27T03:47:25;3.83;;;0.73;;
48534;SDS011;34323;52.022;5.686;2022-09-27T03:49:50;2.58;;;0.80;;
48534;SDS011;34323;52.022;5.686;2022-09-27T03:52:16;1.33;;;0.40;;
48534;SDS011;34323;52.022;5.686;2022-09-27T03:54:42;2.35;;;0.70;;
48534;SDS011;34323;52.022;5.686;2022-09-27T03:57:08;6.78;;;1.30;;
48534;SDS011;34323;52.022;5.686;2022-09-27T03:59:34;2.22;;;0.73;;
48534;SDS011;34323;52.022;5.686;2022-09-27T04:02:00;4.35;;;1.00;;
48534;SDS011;34323;52.022;5.686;2022-09-27T04:04:25;4.93;;;0.80;;
48534;SDS011;34323;52.022;5.686;2022-09-27T04:06:51;7.28;;;0.70;;
48534;SDS011;34323;52.022;5.686;2022-09-27T04:09:16;4.40;;;0.70;;
48534;SDS011;34323;52.022;5.686;2022-09-27T04:11:42;4.72;;;1.15;;
48534;SDS011;34323;52.022;5.686;2022-09-27T04:14:07;2.55;;;1.05;;
48534;SDS011;34323;52.022;5.686;2022-09-27T04:16:37;2.08;;;0.70;;
48534;SDS011;34323;52.022;5.686;2022-09-27T04:19:04;2.83;;;1.00;;
48534;SDS011;34323;52.022;5.686;2022-09-27T04:21:29;6.43;;;1.05;;
48534;SDS011;34323;52.022;5.686;2022-09-27T04:23:55;3.70;;;1.15;;
48534;SDS011;34323;52.022;5.686;2022-09-27T04:26:20;7.28;;;0.98;;
48534;SDS011;34323;52.022;5.686;2022-09-27T04:28:47;2.92;;;0.80;;
48534;SDS011;34323;52.022;5.686;2022-09-27T04:31:13;5.72;;;1.60;;
48534;SDS011;34323;52.022;5.686;2022-09-27T04:33:39;2.55;;;0.80;;
48534;SDS011;34323;52.022;5.686;2022-09-27T04:36:05;5.32;;;1.40;;
48534;SDS011;34323;52.022;5.686;2022-09-27T04:38:49;10.95;;;1.20;;
48534;SDS011;34323;52.022;5.686;2022-09-27T04:41:14;5.28;;;1.67;;
48534;SDS011;34323;52.022;5.686;2022-09-27T04:43:40;4.68;;;1.27;;
48534;SDS011;34323;52.022;5.686;2022-09-27T04:46:05;3.35;;;0.68;;
48534;SDS011;34323;52.022;5.686;2022-09-27T04:48:31;7.88;;;1.33;;
48534;SDS011;34323;52.022;5.686;2022-09-27T04:50:57;5.15;;;1.02;;
48534;SDS011;34323;52.022;5.686;2022-09-27T04:53:24;7.70;;;1.48;;
48534;SDS011;34323;52.022;5.686;2022-09-27T04:55:51;4.13;;;1.13;;
48534;SDS011;34323;52.022;5.686;2022-09-27T04:58:17;5.65;;;1.15;;
48534;SDS011;34323;52.022;5.686;2022-09-27T05:00:42;6.65;;;1.55;;
48534;SDS011;34323;52.022;5.686;2022-09-27T05:03:08;8.73;;;1.27;;
48534;SDS011;34323;52.022;5.686;2022-09-27T05:05:33;5.03;;;1.52;;
48534;SDS011;34323;52.022;5.686;2022-09-27T05:07:59;5.80;;;1.40;;
48534;SDS011;34323;52.022;5.686;2022-09-27T05:10:26;4.60;;;1.52;;
48534;SDS011;34323;52.022;5.686;2022-09-27T05:12:51;4.63;;;1.02;;
48534;SDS011;34323;52.022;5.686;2022-09-27T05:15:17;5.85;;;1.67;;
48534;SDS011;34323;52.022;5.686;2022-09-27T05:17:42;5.30;;;1.30;;
48534;SDS011;34323;52.022;5.686;2022-09-27T05:20:09;4.90;;;1.08;;
48534;SDS011;34323;52.022;5.686;2022-09-27T05:22:35;2.83;;;0.85;;
48534;SDS011;34323;52.022;5.686;2022-09-27T05:25:02;3.45;;;1.20;;
48534;SDS011;34323;52.022;5.686;2022-09-27T05:27:28;5.63;;;1.02;;
48534;SDS011;34323;52.022;5.686;2022-09-27T05:29:55;6.22;;;1.33;;
48534;SDS011;34323;52.022;5.686;2022-09-27T05:32:20;4.68;;;0.95;;
48534;SDS011;34323;52.022;5.686;2022-09-27T05:34:46;3.35;;;0.88;;
48534;SDS011;34323;52.022;5.686;2022-09-27T05:37:12;4.18;;;0.80;;
48534;SDS011;34323;52.022;5.686;2022-09-27T05:39:38;2.00;;;0.68;;
48534;SDS011;34323;52.022;5.686;2022-09-27T05:42:03;3.63;;;0.93;;
48534;SDS011;34323;52.022;5.686;2022-09-27T05:44:31;4.22;;;0.75;;
48534;SDS011;34323;52.022;5.686;2022-09-27T05:46:58;1.17;;;0.70;;
48534;SDS011;34323;52.022;5.686;2022-09-27T05:49:28;2.75;;;1.27;;
48534;SDS011;34323;52.022;5.686;2022-09-27T05:51:53;5.15;;;1.15;;
48534;SDS011;34323;52.022;5.686;2022-09-27T05:54:19;10.02;;;1.52;;
48534;SDS011;34323;52.022;5.686;2022-09-27T05:56:44;9.10;;;1.13;;
48534;SDS011;34323;52.022;5.686;2022-09-27T05:59:10;3.25;;;1.10;;
48534;SDS011;34323;52.022;5.686;2022-09-27T06:01:35;4.68;;;1.00;;
48534;SDS011;34323;52.022;5.686;2022-09-27T06:04:02;3.83;;;1.45;;
48534;SDS011;34323;52.022;5.686;2022-09-27T06:06:28;4.15;;;0.73;;
48534;SDS011;34323;52.022;5.686;2022-09-27T06:08:54;3.30;;;0.80;;
48534;SDS011;34323;52.022;5.686;2022-09-27T06:11:19;1.85;;;0.90;;
48534;SDS011;34323;52.022;5.686;2022-09-27T06:13:45;3.13;;;0.82;;
48534;SDS011;34323;52.022;5.686;2022-09-27T06:16:10;1.75;;;0.70;;
48534;SDS011;34323;52.022;5.686;2022-09-27T06:18:36;2.15;;;0.82;;
48534;SDS011;34323;52.022;5.686;2022-09-27T06:21:02;1.02;;;0.43;;
48534;SDS011;34323;52.022;5.686;2022-09-27T06:23:29;3.08;;;0.70;;
48534;SDS011;34323;52.022;5.686;2022-09-27T06:26:02;2.25;;;0.70;;
48534;SDS011;34323;52.022;5.686;2022-09-27T06:28:30;4.45;;;1.73;;
48534;SDS011;34323;52.022;5.686;2022-09-27T06:30:56;3.00;;;0.60;;
48534;SDS011;34323;52.022;5.686;2022-09-27T06:33:25;2.75;;;0.95;;
48534;SDS011;34323;52.022;5.686;2022-09-27T06:35:52;2.28;;;0.75;;
48534;SDS011;34323;52.022;5.686;2022-09-27T06:38:18;2.13;;;0.68;;
48534;SDS011;34323;52.022;5.686;2022-09-27T06:40:45;3.65;;;1.02;;
48534;SDS011;34323;52.022;5.686;2022-09-27T06:43:17;1.90;;;0.50;;
48534;SDS011;34323;52.022;5.686;2022-09-27T06:45:44;1.63;;;0.63;;
48534;SDS011;34323;52.022;5.686;2022-09-27T06:48:11;4.28;;;0.85;;
48534;SDS011;34323;52.022;5.686;2022-09-27T06:50:39;1.60;;;0.68;;
48534;SDS011;34323;52.022;5.686;2022-09-27T06:53:08;2.00;;;0.57;;
48534;SDS011;34323;52.022;5.686;2022-09-27T06:55:35;5.22;;;1.15;;
48534;SDS011;34323;52.022;5.686;2022-09-27T06:58:02;3.92;;;1.02;;
48534;SDS011;34323;52.022;5.686;2022-09-27T07:00:53;4.40;;;0.90;;
48534;SDS011;34323;52.022;5.686;2022-09-27T07:03:19;1.80;;;0.80;;
48534;SDS011;34323;52.022;5.686;2022-09-27T07:05:54;0.88;;;0.60;;
48534;SDS011;34323;52.022;5.686;2022-09-27T07:08:23;3.35;;;0.77;;
48534;SDS011;34323;52.022;5.686;2022-09-27T07:10:52;4.45;;;1.35;;
48534;SDS011;34323;52.022;5.686;2022-09-27T07:13:19;1.67;;;0.90;;
48534;SDS011;34323;52.022;5.686;2022-09-27T07:15:45;4.78;;;1.30;;
48534;SDS011;34323;52.022;5.686;2022-09-27T07:18:11;1.30;;;1.05;;
48534;SDS011;34323;52.022;5.686;2022-09-27T07:20:36;0.90;;;0.75;;
48534;SDS011;34323;52.022;5.686;2022-09-27T07:23:02;2.85;;;1.00;;
48534;SDS011;34323;52.022;5.686;2022-09-27T07:25:29;1.90;;;0.80;;
48534;SDS011;34323;52.022;5.686;2022-09-27T07:27:59;3.28;;;1.17;;
48534;SDS011;34323;52.022;5.686;2022-09-27T07:30:26;3.97;;;1.38;;
48534;SDS011;34323;52.022;5.686;2022-09-27T07:33:02;3.50;;;1.20;;
48534;SDS011;34323;52.022;5.686;2022-09-27T07:35:29;3.13;;;1.13;;
48534;SDS011;34323;52.022;5.686;2022-09-27T07:37:55;0.93;;;0.70;;
48534;SDS011;34323;52.022;5.686;2022-09-27T07:40:22;2.65;;;0.73;;
48534;SDS011;34323;52.022;5.686;2022-09-27T07:42:55;1.60;;;0.65;;
48534;SDS011;34323;52.022;5.686;2022-09-27T07:45:22;3.30;;;0.90;;
48534;SDS011;34323;52.022;5.686;2022-09-27T07:47:48;2.90;;;0.82;;
48534;SDS011;34323;52.022;5.686;2022-09-27T07:50:15;3.47;;;0.98;;
48534;SDS011;34323;52.022;5.686;2022-09-27T07:52:42;2.55;;;1.27;;
48534;SDS011;34323;52.022;5.686;2022-09-27T07:55:10;1.77;;;1.17;;
48534;SDS011;34323;52.022;5.686;2022-09-27T07:57:37;2.80;;;0.60;;
48534;SDS011;34323;52.022;5.686;2022-09-27T08:00:04;2.15;;;0.68;;
48534;SDS011;34323;52.022;5.686;2022-09-27T08:02:31;2.67;;;0.88;;
48534;SDS011;34323;52.022;5.686;2022-09-27T08:05:00;1.67;;;0.80;;
48534;SDS011;34323;52.022;5.686;2022-09-27T08:07:27;2.88;;;0.80;;
48534;SDS011;34323;52.022;5.686;2022-09-27T08:09:54;2.33;;;0.82;;
48534;SDS011;34323;52.022;5.686;2022-09-27T08:12:20;3.75;;;1.45;;
48534;SDS011;34323;52.022;5.686;2022-09-27T08:14:49;2.78;;;0.90;;
48534;SDS011;34323;52.022;5.686;2022-09-27T08:17:16;2.55;;;1.20;;
48534;SDS011;34323;52.022;5.686;2022-09-27T08:19:43;4.55;;;1.55;;
48534;SDS011;34323;52.022;5.686;2022-09-27T08:22:09;5.15;;;1.55;;
48534;SDS011;34323;52.022;5.686;2022-09-27T08:24:38;3.67;;;0.80;;
48534;SDS011;34323;52.022;5.686;2022-09-27T08:27:04;3.95;;;1.17;;
48534;SDS011;34323;52.022;5.686;2022-09-27T08:29:32;6.00;;;1.52;;
48534;SDS011;34323;52.022;5.686;2022-09-27T08:31:58;2.35;;;1.00;;
48534;SDS011;34323;52.022;5.686;2022-09-27T08:34:23;2.92;;;1.20;;
48534;SDS011;34323;52.022;5.686;2022-09-27T08:36:49;3.55;;;1.70;;
48534;SDS011;34323;52.022;5.686;2022-09-27T08:39:14;5.03;;;1.40;;
48534;SDS011;34323;52.022;5.686;2022-09-27T08:41:45;4.90;;;1.48;;
48534;SDS011;34323;52.022;5.686;2022-09-27T08:44:30;6.88;;;1.50;;
48534;SDS011;34323;52.022;5.686;2022-09-27T08:47:17;2.42;;;1.40;;
48534;SDS011;34323;52.022;5.686;2022-09-27T08:49:53;4.40;;;1.40;;
48534;SDS011;34323;52.022;5.686;2022-09-27T08:52:29;3.38;;;1.65;;
48534;SDS011;34323;52.022;5.686;2022-09-27T08:55:19;5.10;;;2.20;;
48534;SDS011;34323;52.022;5.686;2022-09-27T08:58:01;2.58;;;1.48;;
48534;SDS011;34323;52.022;5.686;2022-09-27T09:00:36;3.90;;;1.25;;
48534;SDS011;34323;52.022;5.686;2022-09-27T09:03:03;2.35;;;1.38;;
48534;SDS011;34323;52.022;5.686;2022-09-27T09:05:34;1.50;;;0.90;;
48534;SDS011;34323;52.022;5.686;2022-09-27T09:24:21;2.35;;;0.40;;
48534;SDS011;34323;52.022;5.686;2022-09-27T09:29:59;3.05;;;0.60;;
48534;SDS011;34323;52.022;5.686;2022-09-27T09:35:18;0.77;;;0.52;;
48534;SDS011;34323;52.022;5.686;2022-09-27T09:37:52;4.80;;;0.80;;
48534;SDS011;34323;52.022;5.686;2022-09-27T09:40:34;1.75;;;0.63;;
48534;SDS011;34323;52.022;5.686;2022-09-27T09:43:12;3.60;;;0.50;;
48534;SDS011;34323;52.022;5.686;2022-09-27T09:45:53;0.60;;;0.40;;
48534;SDS011;34323;52.022;5.686;2022-09-27T09:50:57;2.08;;;0.60;;
48534;SDS011;34323;52.022;5.686;2022-09-27T09:55:58;0.70;;;0.30;;
48534;SDS011;34323;52.022;5.686;2022-09-27T09:58:29;3.88;;;0.88;;
48534;SDS011;34323;52.022;5.686;2022-09-27T10:01:07;3.67;;;0.90;;
48534;SDS011;34323;52.022;5.686;2022-09-27T10:03:39;1.85;;;0.82;;
48534;SDS011;34323;52.022;5.686;2022-09-27T10:06:05;3.17;;;0.90;;
48534;SDS011;34323;52.022;5.686;2022-09-27T10:08:30;1.50;;;0.38;;
48534;SDS011;34323;52.022;5.686;2022-09-27T10:10:57;3.53;;;1.02;;
48534;SDS011;34323;52.022;5.686;2022-09-27T10:13:22;1.42;;;0.52;;
48534;SDS011;34323;52.022;5.686;2022-09-27T10:16:02;2.25;;;0.73;;
48534;SDS011;34323;52.022;5.686;2022-09-27T10:18:31;4.35;;;0.77;;
48534;SDS011;34323;52.022;5.686;2022-09-27T10:21:00;2.83;;;0.95;;
48534;SDS011;34323;52.022;5.686;2022-09-27T10:23:29;6.20;;;1.42;;
48534;SDS011;34323;52.022;5.686;2022-09-27T10:28:33;5.53;;;0.73;;
48534;SDS011;34323;52.022;5.686;2022-09-27T10:31:10;1.75;;;0.65;;
48534;SDS011;34323;52.022;5.686;2022-09-27T10:33:38;2.88;;;0.43;;
48534;SDS011;34323;52.022;5.686;2022-09-27T10:36:28;1.90;;;0.35;;
48534;SDS011;34323;52.022;5.686;2022-09-27T10:38:56;1.05;;;0.50;;
48534;SDS011;34323;52.022;5.686;2022-09-27T10:41:31;1.38;;;0.40;;
48534;SDS011;34323;52.022;5.686;2022-09-27T10:44:18;0.38;;;0.22;;
48534;SDS011;34323;52.022;5.686;2022-09-27T10:47:00;1.02;;;0.40;;
48534;SDS011;34323;52.022;5.686;2022-09-27T10:49:33;0.75;;;0.20;;
48534;SDS011;34323;52.022;5.686;2022-09-27T10:52:02;1.83;;;0.30;;
48534;SDS011;34323;52.022;5.686;2022-09-27T10:54:31;0.68;;;0.45;;
48534;SDS011;34323;52.022;5.686;2022-09-27T10:59:57;2.47;;;0.50;;
48534;SDS011;34323;52.022;5.686;2022-09-27T11:02:44;0.90;;;0.20;;
48534;SDS011;34323;52.022;5.686;2022-09-27T11:07:55;0.80;;;0.38;;
48534;SDS011;34323;52.022;5.686;2022-09-27T11:10:30;2.28;;;0.40;;
48534;SDS011;34323;52.022;5.686;2022-09-27T11:21:41;3.00;;;0.75;;
48534;SDS011;34323;52.022;5.686;2022-09-27T11:35:49;3.10;;;0.43;;
48534;SDS011;34323;52.022;5.686;2022-09-27T11:38:30;2.22;;;0.60;;
48534;SDS011;34323;52.022;5.686;2022-09-27T11:41:06;1.13;;;0.47;;
48534;SDS011;34323;52.022;5.686;2022-09-27T11:46:27;1.38;;;0.30;;
48534;SDS011;34323;52.022;5.686;2022-09-27T11:49:18;1.27;;;0.32;;
48534;SDS011;34323;52.022;5.686;2022-09-27T11:54:53;4.10;;;0.40;;
48534;SDS011;34323;52.022;5.686;2022-09-27T12:00:02;0.93;;;0.40;;
48534;SDS011;34323;52.022;5.686;2022-09-27T12:02:40;1.55;;;0.50;;
48534;SDS011;34323;52.022;5.686;2022-09-27T12:05:26;0.73;;;0.20;;
48534;SDS011;34323;52.022;5.686;2022-09-27T12:11:04;1.15;;;0.35;;
48534;SDS011;34323;52.022;5.686;2022-09-27T12:13:53;1.08;;;0.30;;
48534;SDS011;34323;52.022;5.686;2022-09-27T12:16:26;1.77;;;0.50;;
48534;SDS011;34323;52.022;5.686;2022-09-27T12:18:54;3.65;;;0.50;;
48534;SDS011;34323;52.022;5.686;2022-09-27T12:21:21;1.30;;;0.63;;
48534;SDS011;34323;52.022;5.686;2022-09-27T12:23:48;0.50;;;0.30;;
48534;SDS011;34323;52.022;5.686;2022-09-27T12:29:04;0.10;;;0.10;;
48534;SDS011;34323;52.022;5.686;2022-09-27T12:40:18;0.73;;;0.45;;
48534;SDS011;34323;52.022;5.686;2022-09-27T12:42:52;3.35;;;0.47;;
48534;SDS011;34323;52.022;5.686;2022-09-27T12:46:12;0.17;;;0.17;;
48534;SDS011;34323;52.022;5.686;2022-09-27T12:50:52;2.50;;;0.63;;
48534;SDS011;34323;52.022;5.686;2022-09-27T12:53:47;1.40;;;0.40;;
48534;SDS011;34323;52.022;5.686;2022-09-27T12:56:29;0.30;;;0.30;;
48534;SDS011;34323;52.022;5.686;2022-09-27T12:59:06;2.95;;;0.40;;
48534;SDS011;34323;52.022;5.686;2022-09-27T13:13:19;0.85;;;0.30;;
48534;SDS011;34323;52.022;5.686;2022-09-27T13:15:47;0.38;;;0.32;;
48534;SDS011;34323;52.022;5.686;2022-09-27T13:21:05;1.25;;;0.50;;
48534;SDS011;34323;52.022;5.686;2022-09-27T13:26:00;1.08;;;0.55;;
48534;SDS011;34323;52.022;5.686;2022-09-27T13:30:54;1.35;;;0.40;;
48534;SDS011;34323;52.022;5.686;2022-09-27T13:33:21;1.65;;;0.68;;
48534;SDS011;34323;52.022;5.686;2022-09-27T13:38:32;1.08;;;0.38;;
48534;SDS011;34323;52.022;5.686;2022-09-27T13:41:14;1.05;;;0.40;;
48534;SDS011;34323;52.022;5.686;2022-09-27T13:43:47;0.65;;;0.60;;
48534;SDS011;34323;52.022;5.686;2022-09-27T13:46:34;2.08;;;0.75;;
48534;SDS011;34323;52.022;5.686;2022-09-27T13:49:04;1.20;;;0.47;;
48534;SDS011;34323;52.022;5.686;2022-09-27T13:54:55;1.30;;;0.63;;
48534;SDS011;34323;52.022;5.686;2022-09-27T14:00:12;1.50;;;0.40;;
48534;SDS011;34323;52.022;5.686;2022-09-27T14:03:06;2.38;;;0.43;;
48534;SDS011;34323;52.022;5.686;2022-09-27T14:05:50;3.50;;;0.60;;
48534;SDS011;34323;52.022;5.686;2022-09-27T14:08:41;0.30;;;0.30;;
48534;SDS011;34323;52.022;5.686;2022-09-27T14:11:23;0.95;;;0.43;;
48534;SDS011;34323;52.022;5.686;2022-09-27T14:13:52;1.50;;;0.40;;
48534;SDS011;34323;52.022;5.686;2022-09-27T14:16:18;5.60;;;0.93;;
48534;SDS011;34323;52.022;5.686;2022-09-27T14:18:46;3.83;;;0.82;;
48534;SDS011;34323;52.022;5.686;2022-09-27T14:23:46;1.83;;;0.57;;
48534;SDS011;34323;52.022;5.686;2022-09-27T14:26:20;1.10;;;0.50;;
48534;SDS011;34323;52.022;5.686;2022-09-27T14:28:50;2.22;;;0.38;;
48534;SDS011;34323;52.022;5.686;2022-09-27T14:31:17;1.27;;;0.63;;
48534;SDS011;34323;52.022;5.686;2022-09-27T14:33:46;0.47;;;0.30;;
48534;SDS011;34323;52.022;5.686;2022-09-27T14:36:29;0.88;;;0.57;;
48534;SDS011;34323;52.022;5.686;2022-09-27T14:39:29;1.85;;;0.65;;
48534;SDS011;34323;52.022;5.686;2022-09-27T14:41:57;1.25;;;0.70;;
48534;SDS011;34323;52.022;5.686;2022-09-27T14:44:27;2.65;;;0.85;;
48534;SDS011;34323;52.022;5.686;2022-09-27T14:47:09;1.08;;;0.40;;
48534;SDS011;34323;52.022;5.686;2022-09-27T14:49:45;1.65;;;0.65;;
48534;SDS011;34323;52.022;5.686;2022-09-27T14:52:15;1.90;;;0.82;;
48534;SDS011;34323;52.022;5.686;2022-09-27T14:55:05;2.85;;;0.98;;
48534;SDS011;34323;52.022;5.686;2022-09-27T14:57:32;3.05;;;0.80;;
48534;SDS011;34323;52.022;5.686;2022-09-27T15:00:01;2.38;;;0.68;;
48534;SDS011;34323;52.022;5.686;2022-09-27T15:02:45;1.13;;;0.77;;
48534;SDS011;34323;52.022;5.686;2022-09-27T15:05:18;2.15;;;0.80;;
48534;SDS011;34323;52.022;5.686;2022-09-27T15:07:45;0.93;;;0.60;;
48534;SDS011;34323;52.022;5.686;2022-09-27T15:10:16;2.80;;;1.10;;
48534;SDS011;34323;52.022;5.686;2022-09-27T15:12:44;1.73;;;0.85;;
48534;SDS011;34323;52.022;5.686;2022-09-27T15:15:17;4.65;;;0.95;;
48534;SDS011;34323;52.022;5.686;2022-09-27T15:17:46;3.13;;;0.70;;
48534;SDS011;34323;52.022;5.686;2022-09-27T15:20:31;1.85;;;1.00;;
48534;SDS011;34323;52.022;5.686;2022-09-27T15:22:58;1.35;;;0.88;;
48534;SDS011;34323;52.022;5.686;2022-09-27T15:25:33;1.10;;;0.70;;
48534;SDS011;34323;52.022;5.686;2022-09-27T15:28:12;1.50;;;0.70;;
48534;SDS011;34323;52.022;5.686;2022-09-27T15:30:50;2.70;;;1.15;;
48534;SDS011;34323;52.022;5.686;2022-09-27T15:33:20;1.35;;;0.73;;
48534;SDS011;34323;52.022;5.686;2022-09-27T15:35:49;3.75;;;0.95;;
48534;SDS011;34323;52.022;5.686;2022-09-27T15:41:11;1.20;;;0.77;;
48534;SDS011;34323;52.022;5.686;2022-09-27T15:43:48;1.05;;;0.73;;
48534;SDS011;34323;52.022;5.686;2022-09-27T15:51:59;0.65;;;0.57;;
48534;SDS011;34323;52.022;5.686;2022-09-27T15:54:27;1.25;;;0.93;;
48534;SDS011;34323;52.022;5.686;2022-09-27T15:56:55;2.38;;;1.05;;
48534;SDS011;34323;52.022;5.686;2022-09-27T15:59:25;1.13;;;0.77;;
48534;SDS011;34323;52.022;5.686;2022-09-27T16:01:56;1.02;;;0.80;;
48534;SDS011;34323;52.022;5.686;2022-09-27T16:04:23;2.33;;;0.98;;
48534;SDS011;34323;52.022;5.686;2022-09-27T16:06:50;1.60;;;0.90;;
48534;SDS011;34323;52.022;5.686;2022-09-27T16:09:17;1.42;;;0.85;;
48534;SDS011;34323;52.022;5.686;2022-09-27T16:11:48;3.55;;;0.93;;
48534;SDS011;34323;52.022;5.686;2022-09-27T16:14:14;1.75;;;1.30;;
48534;SDS011;34323;52.022;5.686;2022-09-27T16:16:46;5.68;;;1.00;;
48534;SDS011;34323;52.022;5.686;2022-09-27T16:19:14;1.58;;;1.00;;
48534;SDS011;34323;52.022;5.686;2022-09-27T16:21:40;2.72;;;1.08;;
48534;SDS011;34323;52.022;5.686;2022-09-27T16:24:07;1.83;;;1.20;;
48534;SDS011;34323;52.022;5.686;2022-09-27T16:26:36;3.60;;;1.23;;
48534;SDS011;34323;52.022;5.686;2022-09-27T16:29:02;3.25;;;1.40;;
48534;SDS011;34323;52.022;5.686;2022-09-27T16:31:27;3.13;;;1.10;;
48534;SDS011;34323;52.022;5.686;2022-09-27T16:33:53;2.60;;;1.38;;
48534;SDS011;34323;52.022;5.686;2022-09-27T16:36:19;2.45;;;1.25;;
48534;SDS011;34323;52.022;5.686;2022-09-27T16:38:48;1.83;;;1.20;;
48534;SDS011;34323;52.022;5.686;2022-09-27T16:41:14;3.55;;;1.75;;
48534;SDS011;34323;52.022;5.686;2022-09-27T16:43:40;6.68;;;1.67;;
48534;SDS011;34323;52.022;5.686;2022-09-27T16:46:06;2.00;;;1.40;;
48534;SDS011;34323;52.022;5.686;2022-09-27T16:48:35;4.43;;;1.95;;
48534;SDS011;34323;52.022;5.686;2022-09-27T16:51:02;3.95;;;2.35;;
48534;SDS011;34323;52.022;5.686;2022-09-27T16:53:52;3.13;;;1.90;;
48534;SDS011;34323;52.022;5.686;2022-09-27T16:56:18;4.50;;;1.75;;
48534;SDS011;34323;52.022;5.686;2022-09-27T16:58:44;3.35;;;1.80;;
48534;SDS011;34323;52.022;5.686;2022-09-27T17:01:10;4.47;;;1.48;;
48534;SDS011;34323;52.022;5.686;2022-09-27T17:03:35;4.03;;;1.63;;
48534;SDS011;34323;52.022;5.686;2022-09-27T17:06:01;5.47;;;1.50;;
48534;SDS011;34323;52.022;5.686;2022-09-27T17:08:30;5.88;;;1.40;;
48534;SDS011;34323;52.022;5.686;2022-09-27T17:10:56;2.28;;;1.23;;
48534;SDS011;34323;52.022;5.686;2022-09-27T17:13:22;4.15;;;2.00;;
48534;SDS011;34323;52.022;5.686;2022-09-27T17:15:47;3.03;;;1.52;;
48534;SDS011;34323;52.022;5.686;2022-09-27T17:18:13;3.35;;;1.05;;
48534;SDS011;34323;52.022;5.686;2022-09-27T17:20:39;2.15;;;1.10;;
48534;SDS011;34323;52.022;5.686;2022-09-27T17:23:04;1.30;;;0.90;;
48534;SDS011;34323;52.022;5.686;2022-09-27T17:25:30;1.10;;;0.98;;
48534;SDS011;34323;52.022;5.686;2022-09-27T17:27:56;1.70;;;0.98;;
48534;SDS011;34323;52.022;5.686;2022-09-27T17:30:22;1.25;;;1.00;;
48534;SDS011;34323;52.022;5.686;2022-09-27T17:32:48;1.45;;;0.88;;
48534;SDS011;34323;52.022;5.686;2022-09-27T17:35:13;5.32;;;1.17;;
48534;SDS011;34323;52.022;5.686;2022-09-27T17:37:39;2.47;;;1.00;;
48534;SDS011;34323;52.022;5.686;2022-09-27T17:40:05;2.08;;;1.00;;